Time;durP1;ratioP1;P1;durP2;ratioP2;P2;SDS_P1;SDS_P2;PMS_P1;PMS_P2;Temp;Humidity;BMP_temperature;BMP_pressure;BME280_temperature;BME280_humidity;BME280_pressure;Samples;Min_cycle;Max_cycle;Signal;HPM_P1;HPM_P2
2021/12/13 00:00:24;;;;;;;27.70;20.87;;;-2.00;99.90;;;;;;5036417;28;20177;-78
2021/12/13 00:03:10;;;;;;;24.43;19.57;;;-1.80;99.90;;;;;;5037135;28;20276;-78
2021/12/13 00:06:02;;;;;;;29.07;20.57;;;-1.60;99.90;;;;;;5037191;28;20183;-77
2021/12/13 00:08:38;;;;;;;28.13;20.60;;;-1.50;99.90;;;;;;5038839;28;20227;-79
2021/12/13 00:11:17;;;;;;;29.80;21.37;;;-0.90;99.90;;;;;;5035765;28;20297;-80
2021/12/13 00:13:56;;;;;;;29.23;20.27;;;-1.60;99.90;;;;;;5036810;28;20577;-77
2021/12/13 00:16:32;;;;;;;26.53;20.50;;;-1.20;99.90;;;;;;5036798;28;20204;-76
2021/12/13 00:19:03;;;;;;;25.43;19.40;;;-2.10;99.90;;;;;;5036685;28;20163;-75
2021/12/13 00:21:35;;;;;;;27.13;20.83;;;-3.60;99.90;;;;;;5036758;28;20172;-75
2021/12/13 00:24:25;;;;;;;32.47;23.50;;;-3.40;99.90;;;;;;5036418;28;20248;-79
2021/12/13 00:26:59;;;;;;;29.33;20.90;;;-3.40;99.90;;;;;;5035701;28;20588;-79
2021/12/13 00:29:33;;;;;;;28.43;20.90;;;-3.40;99.90;;;;;;5036515;28;20183;-79
2021/12/13 00:32:19;;;;;;;26.00;20.53;;;-3.30;99.90;;;;;;5036695;28;20181;-79
2021/12/13 00:34:51;;;;;;;29.23;21.73;;;-2.30;99.90;;;;;;5036470;28;20172;-79
2021/12/13 00:37:29;;;;;;;29.23;22.03;;;-2.30;99.90;;;;;;5035323;28;20215;-80
2021/12/13 00:40:15;;;;;;;28.50;19.87;;;-1.60;99.90;;;;;;5036131;28;20176;-79
2021/12/13 00:42:49;;;;;;;29.80;19.87;;;-1.50;99.90;;;;;;5035363;28;20212;-80
2021/12/13 00:45:18;;;;;;;24.57;18.70;;;-1.60;99.90;;;;;;5035133;28;20547;-79
2021/12/13 00:47:44;;;;;;;27.63;19.87;;;-1.80;99.90;;;;;;5035207;28;20191;-79
2021/12/13 00:50:27;;;;;;;24.07;18.73;;;-1.80;99.90;;;;;;5036087;28;20187;-79
2021/12/13 00:52:54;;;;;;;27.40;19.60;;;-1.60;99.90;;;;;;5036050;28;20642;-75
2021/12/13 00:55:28;;;;;;;24.00;18.63;;;-1.60;99.90;;;;;;5035058;28;20275;-74
2021/12/13 00:58:12;;;;;;;23.03;17.33;;;-2.10;99.90;;;;;;5036164;28;20175;-74
2021/12/13 01:01:00;;;;;;;27.60;19.50;;;-1.10;99.90;;;;;;5036132;28;20575;-74
2021/12/13 01:03:29;;;;;;;25.87;19.27;;;-1.60;99.90;;;;;;5018576;28;20175;-78
2021/12/13 01:06:36;;;;;;;26.63;17.60;;;-1.70;99.90;;;;;;5034939;28;20177;-78
2021/12/13 01:09:39;;;;;;;28.47;18.47;;;-1.30;99.90;;;;;;5035654;28;20200;-75
2021/12/13 01:12:09;;;;;;;25.73;19.37;;;-1.40;99.90;;;;;;5035856;28;20180;-74
2021/12/13 01:14:57;;;;;;;26.33;19.30;;;-1.30;99.90;;;;;;5035803;28;20590;-75
2021/12/13 01:17:51;;;;;;;21.30;17.73;;;-1.60;99.90;;;;;;5035808;28;20197;-77
2021/12/13 01:20:43;;;;;;;20.80;16.73;;;-1.30;99.90;;;;;;5035842;28;20191;-79
2021/12/13 01:23:17;;;;;;;23.77;17.80;;;-1.40;99.90;;;;;;5035637;28;20168;-80
2021/12/13 01:28:42;;;;;;;26.13;18.43;;;-1.60;99.90;;;;;;5044485;28;20525;-80
2021/12/13 01:31:20;;;;;;;25.27;17.27;;;-1.50;99.90;;;;;;5034735;28;20175;-76
2021/12/13 01:33:50;;;;;;;25.63;18.53;;;-1.70;99.90;;;;;;5035858;28;20161;-74
2021/12/13 01:36:24;;;;;;;22.63;17.47;;;-1.70;99.90;;;;;;5035078;28;20255;-76
2021/12/13 01:39:04;;;;;;;21.53;16.90;;;-1.60;99.90;;;;;;5035762;28;20209;-74
2021/12/13 01:41:33;;;;;;;25.03;17.73;;;-2.90;99.90;;;;;;5035508;28;20175;-73
2021/12/13 01:44:05;;;;;;;19.00;14.53;;;-2.60;99.90;;;;;;5035738;28;20182;-73
2021/12/13 01:46:39;;;;;;;20.27;16.27;;;-2.50;99.90;;;;;;5035435;28;20167;-73
2021/12/13 01:49:07;;;;;;;21.57;16.70;;;-2.10;99.90;;;;;;5035533;28;20208;-75
2021/12/13 01:51:34;;;;;;;18.90;15.33;;;-2.10;99.90;;;;;;5034217;28;20168;-74
2021/12/13 01:54:07;;;;;;;20.00;14.83;;;-2.10;99.90;;;;;;5035575;28;20179;-75
2021/12/13 01:59:27;;;;;;;22.60;17.03;;;-1.80;99.90;;;;;;5035476;28;20164;-81
2021/12/13 02:01:59;;;;;;;20.87;14.67;;;-2.10;99.90;;;;;;5035468;28;20168;-74
2021/12/13 02:04:25;;;;;;;25.30;16.60;;;-2.10;99.90;;;;;;5035550;28;20198;-80
2021/12/13 02:06:58;;;;;;;23.37;17.03;;;-2.30;99.90;;;;;;5035070;28;20173;-80
2021/12/13 02:09:30;;;;;;;19.67;15.70;;;-2.30;99.90;;;;;;5035232;28;20168;-74
2021/12/13 02:12:00;;;;;;;23.17;16.83;;;-1.80;99.90;;;;;;5035098;28;20195;-79
2021/12/13 02:14:32;;;;;;;18.47;14.77;;;-2.40;99.90;;;;;;5035286;28;20575;-76
2021/12/13 02:19:57;;;;;;;20.87;16.27;;;-1.60;99.90;;;;;;5035112;28;20222;-78
2021/12/13 02:22:43;;;;;;;21.13;15.57;;;-1.20;99.90;;;;;;5035139;28;20176;-78
2021/12/13 02:25:24;;;;;;;19.33;14.33;;;-1.20;99.90;;;;;;5038571;28;20172;-79
2021/12/13 02:28:09;;;;;;;19.33;15.87;;;-1.40;99.90;;;;;;5037943;28;20175;-78
2021/12/13 02:31:00;;;;;;;22.63;16.77;;;-2.40;99.90;;;;;;5038952;28;20588;-77
2021/12/13 02:33:52;;;;;;;20.00;13.50;;;-2.10;99.90;;;;;;5038936;28;20565;-76
2021/12/13 02:36:28;;;;;;;20.73;14.37;;;-1.60;99.90;;;;;;5037376;28;20204;-80
2021/12/13 02:38:57;;;;;;;21.77;15.30;;;-1.60;99.90;;;;;;5038757;28;20162;-80
2021/12/13 02:41:28;;;;;;;18.37;13.80;;;-1.60;99.90;;;;;;5037245;28;20198;-77
2021/12/13 02:44:00;;;;;;;16.43;13.53;;;-1.40;99.90;;;;;;5038760;28;20163;-81
2021/12/13 02:46:26;;;;;;;20.07;15.10;;;-1.60;99.90;;;;;;5038576;28;20275;-81
2021/12/13 02:48:59;;;;;;;18.53;15.53;;;-1.60;99.90;;;;;;5038176;28;20226;-79
2021/12/13 02:51:33;;;;;;;20.53;15.43;;;-1.40;99.90;;;;;;5038387;28;20173;-80
2021/12/13 02:54:11;;;;;;;20.03;14.80;;;-1.50;99.90;;;;;;5038536;28;20629;-76
2021/12/13 02:57:00;;;;;;;20.43;14.93;;;-1.60;99.90;;;;;;5038217;28;20188;-75
2021/12/13 02:59:30;;;;;;;19.50;15.97;;;-1.50;99.90;;;;;;5038408;28;20210;-74
2021/12/13 03:02:06;;;;;;;17.83;15.00;;;-1.50;99.90;;;;;;5038137;28;20168;-75
2021/12/13 03:04:33;;;;;;;19.30;15.67;;;-1.90;99.90;;;;;;5038111;28;20459;-79
2021/12/13 03:07:07;;;;;;;21.00;14.70;;;-1.70;99.90;;;;;;5038233;28;20175;-77
2021/12/13 03:09:37;;;;;;;19.17;14.67;;;-1.50;99.90;;;;;;5038140;28;20171;-74
2021/12/13 03:12:08;;;;;;;18.10;14.57;;;-1.60;99.90;;;;;;5037891;28;20195;-76
2021/12/13 03:14:40;;;;;;;16.50;12.83;;;-1.20;99.90;;;;;;5038211;28;20167;-78
2021/12/13 03:17:29;;;;;;;18.67;14.90;;;-0.60;99.90;;;;;;5037981;28;20204;-81
2021/12/13 03:20:20;;;;;;;18.83;13.83;;;-1.70;99.90;;;;;;5036694;28;20275;-80
2021/12/13 03:23:13;;;;;;;20.40;15.03;;;-1.60;99.90;;;;;;5038115;28;20179;-75
2021/12/13 03:25:53;;;;;;;20.27;13.77;;;-1.40;99.90;;;;;;5037903;28;20268;-77
2021/12/13 03:28:42;;;;;;;22.93;14.27;;;-1.60;99.90;;;;;;5037734;28;20233;-79
2021/12/13 03:31:13;;;;;;;16.20;12.53;;;-1.40;99.90;;;;;;5036809;28;20592;-79
2021/12/13 03:33:48;;;;;;;19.57;13.17;;;-1.60;99.90;;;;;;5037507;28;20195;-80
2021/12/13 03:36:17;;;;;;;21.23;14.93;;;-1.50;99.90;;;;;;5036440;28;20589;-77
2021/12/13 03:38:49;;;;;;;18.43;14.13;;;-2.10;99.90;;;;;;5037625;28;20183;-80
2021/12/13 03:41:19;;;;;;;19.10;13.23;;;-1.90;99.90;;;;;;5037252;28;20183;-78
2021/12/13 03:43:59;;;;;;;18.57;14.77;;;-1.90;99.90;;;;;;5036476;28;20176;-79
2021/12/13 03:46:27;;;;;;;21.27;15.47;;;-1.40;99.90;;;;;;5037205;28;20248;-79
2021/12/13 03:48:55;;;;;;;15.90;11.73;;;-1.40;99.90;;;;;;5037108;28;20173;-80
2021/12/13 03:51:26;;;;;;;16.77;13.87;;;-1.40;99.90;;;;;;5037524;28;20180;-76
2021/12/13 03:53:56;;;;;;;16.17;12.87;;;-1.70;99.90;;;;;;5037281;28;20175;-74
2021/12/13 03:56:28;;;;;;;17.93;14.47;;;-0.90;99.90;;;;;;5037322;28;20619;-75
2021/12/13 03:59:02;;;;;;;19.03;13.87;;;-1.10;99.90;;;;;;5035908;28;20559;-75
2021/12/13 04:01:41;;;;;;;24.93;15.13;;;-0.80;99.90;;;;;;5037020;28;20514;-78
2021/12/13 04:04:11;;;;;;;18.23;13.47;;;-1.40;99.90;;;;;;5036906;28;20167;-75
2021/12/13 04:06:52;;;;;;;16.17;12.37;;;-1.50;99.90;;;;;;5037172;28;20535;-73
2021/12/13 04:09:20;;;;;;;19.73;14.63;;;-1.50;99.90;;;;;;5036921;28;20498;-77
2021/12/13 04:11:47;;;;;;;19.83;14.07;;;-0.90;99.90;;;;;;5036927;28;20180;-75
2021/12/13 04:14:25;;;;;;;15.37;12.63;;;-1.40;99.90;;;;;;5036722;28;20175;-73
2021/12/13 04:17:20;;;;;;;16.60;12.47;;;-1.30;99.90;;;;;;5036564;28;20200;-75
2021/12/13 04:19:56;;;;;;;17.73;12.90;;;-1.40;99.90;;;;;;5036770;28;20164;-73
2021/12/13 04:22:29;;;;;;;14.20;12.27;;;-0.90;99.90;;;;;;5036719;28;20271;-79
2021/12/13 04:25:01;;;;;;;15.10;11.50;;;-1.20;99.90;;;;;;5036616;28;20175;-80
2021/12/13 04:27:53;;;;;;;14.83;11.17;;;-1.30;99.90;;;;;;5036674;28;20172;-77
2021/12/13 04:30:41;;;;;;;14.53;11.07;;;-0.90;99.90;;;;;;5036304;28;20222;-78
2021/12/13 04:33:30;;;;;;;16.37;11.20;;;-0.80;99.90;;;;;;5035570;28;20271;-76
2021/12/13 04:36:01;;;;;;;16.90;11.63;;;-0.70;99.90;;;;;;5035360;28;20229;-79
2021/12/13 04:39:08;;;;;;;15.93;11.73;;;-0.90;99.90;;;;;;5036509;28;20198;-79
2021/12/13 04:41:53;;;;;;;14.70;12.13;;;-1.00;99.90;;;;;;5041317;28;20188;-79
2021/12/13 04:44:40;;;;;;;14.43;10.93;;;-1.10;99.90;;;;;;5035021;28;20242;-79
2021/12/13 04:47:13;;;;;;;16.33;11.77;;;-1.40;99.90;;;;;;5036113;28;20217;-79
2021/12/13 04:49:46;;;;;;;14.10;11.37;;;-1.90;99.90;;;;;;5036101;28;20191;-79
2021/12/13 04:52:16;;;;;;;14.70;11.33;;;-1.50;99.90;;;;;;5036337;28;20420;-80
2021/12/13 04:54:46;;;;;;;16.50;11.67;;;-1.70;99.90;;;;;;5035305;28;20307;-79
2021/12/13 04:57:12;;;;;;;16.10;14.17;;;-1.30;99.90;;;;;;5035140;28;20210;-80
2021/12/13 04:59:39;;;;;;;14.70;12.60;;;-1.10;99.90;;;;;;5035792;28;20200;-78
2021/12/13 05:02:09;;;;;;;14.03;11.20;;;-0.90;99.90;;;;;;5035030;28;20184;-77
2021/12/13 05:04:36;;;;;;;15.47;13.07;;;-0.80;99.90;;;;;;5036014;28;20172;-75
2021/12/13 05:07:04;;;;;;;15.37;11.80;;;-0.80;99.90;;;;;;5035099;28;20211;-77
2021/12/13 05:09:31;;;;;;;12.23;10.23;;;-1.30;99.90;;;;;;5034826;28;20179;-77
2021/12/13 05:12:07;;;;;;;15.87;11.43;;;-1.30;99.90;;;;;;5035991;28;20266;-74
2021/12/13 05:14:41;;;;;;;14.77;12.57;;;-1.70;99.90;;;;;;5035642;28;20465;-77
2021/12/13 05:17:18;;;;;;;17.70;13.00;;;-1.70;99.90;;;;;;5035954;28;20668;-79
2021/12/13 05:19:50;;;;;;;13.37;11.93;;;-1.30;99.90;;;;;;5035806;28;20185;-80
2021/12/13 05:22:18;;;;;;;13.43;12.03;;;-1.20;99.90;;;;;;5035120;28;20262;-73
2021/12/13 05:24:54;;;;;;;13.03;9.57;;;-1.30;99.90;;;;;;5035814;28;20171;-75
2021/12/13 05:27:33;;;;;;;13.83;11.57;;;-0.80;99.90;;;;;;5035867;28;20168;-78
2021/12/13 05:30:20;;;;;;;12.43;11.13;;;-1.60;99.90;;;;;;5035512;28;20175;-79
2021/12/13 05:32:56;;;;;;;13.17;10.63;;;-1.40;99.90;;;;;;5035832;28;20596;-79
2021/12/13 05:35:31;;;;;;;12.07;10.20;;;-1.40;99.90;;;;;;5035513;28;20674;-78
2021/12/13 05:38:00;;;;;;;11.53;10.43;;;-1.50;99.90;;;;;;5035583;28;20285;-81
2021/12/13 05:40:26;;;;;;;11.07;9.63;;;-1.60;99.90;;;;;;5035544;28;20178;-81
2021/12/13 05:42:55;;;;;;;9.60;8.33;;;-1.40;99.90;;;;;;5035644;28;20616;-79
2021/12/13 05:45:30;;;;;;;11.80;9.00;;;-1.10;99.90;;;;;;5035521;28;20259;-80
2021/12/13 05:48:06;;;;;;;11.43;8.70;;;-1.30;99.90;;;;;;5034528;28;20183;-81
2021/12/13 05:50:40;;;;;;;10.47;8.90;;;-1.10;99.90;;;;;;5035148;28;20229;-78
2021/12/13 05:53:10;;;;;;;11.33;9.20;;;-1.30;99.90;;;;;;5034525;28;20183;-79
2021/12/13 05:55:52;;;;;;;11.77;9.37;;;-1.20;99.90;;;;;;5035437;28;20573;-81
2021/12/13 05:58:48;;;;;;;10.60;9.53;;;-1.50;99.90;;;;;;5035605;28;20171;-77
2021/12/13 06:01:21;;;;;;;9.97;7.40;;;-1.70;99.90;;;;;;5039355;28;20633;-79
2021/12/13 06:04:07;;;;;;;9.97;8.10;;;-1.50;99.90;;;;;;5038419;28;20196;-78
2021/12/13 06:06:46;;;;;;;8.97;8.07;;;-1.30;99.90;;;;;;5042103;28;20191;-80
2021/12/13 06:09:41;;;;;;;9.67;7.93;;;-1.00;99.90;;;;;;5038238;28;20807;-80
2021/12/13 06:12:29;;;;;;;8.10;6.90;;;-1.40;99.90;;;;;;5038726;28;20601;-78
2021/12/13 06:14:56;;;;;;;7.03;6.33;;;-1.00;99.90;;;;;;5039332;28;20184;-80
2021/12/13 06:17:32;;;;;;;9.83;7.07;;;-1.00;99.90;;;;;;5039124;28;20623;-80
2021/12/13 06:20:09;;;;;;;7.63;6.90;;;-1.30;99.90;;;;;;5039156;28;20175;-79
2021/12/13 06:22:35;;;;;;;9.27;7.37;;;-1.30;99.90;;;;;;5039136;28;20172;-77
2021/12/13 06:25:07;;;;;;;8.63;7.20;;;-1.10;99.90;;;;;;5039057;28;20287;-78
2021/12/13 06:27:48;;;;;;;9.27;6.33;;;-0.90;99.90;;;;;;5038484;28;20200;-79
2021/12/13 06:30:17;;;;;;;7.83;7.00;;;-1.10;99.90;;;;;;5038976;28;20200;-75
2021/12/13 06:32:53;;;;;;;8.63;7.73;;;-1.00;99.90;;;;;;5038745;28;20257;-76
2021/12/13 06:35:28;;;;;;;10.50;8.10;;;-1.10;99.90;;;;;;5038840;28;20178;-77
2021/12/13 06:37:54;;;;;;;7.63;6.90;;;-1.20;99.90;;;;;;5038622;28;20207;-77
2021/12/13 06:40:27;;;;;;;12.43;8.33;;;-1.20;99.90;;;;;;5038307;28;20174;-77
2021/12/13 06:42:58;;;;;;;7.57;6.80;;;-1.30;99.90;;;;;;5038363;28;20179;-76
2021/12/13 06:45:29;;;;;;;8.73;7.23;;;-1.30;99.90;;;;;;5038621;28;20172;-74
2021/12/13 06:47:58;;;;;;;7.83;6.67;;;-1.00;99.90;;;;;;5038388;28;20573;-75
2021/12/13 06:50:28;;;;;;;8.30;7.50;;;-1.10;99.90;;;;;;5038401;28;20191;-75
2021/12/13 06:53:14;;;;;;;8.93;7.93;;;-1.50;99.90;;;;;;5038157;28;20221;-78
2021/12/13 06:55:40;;;;;;;8.17;6.50;;;-1.40;99.90;;;;;;5038086;28;20175;-74
2021/12/13 06:58:32;;;;;;;8.03;7.23;;;-2.10;99.90;;;;;;5036924;28;20196;-75
2021/12/13 07:01:06;;;;;;;6.57;5.97;;;-1.30;99.90;;;;;;5038948;28;20677;-79
2021/12/13 07:03:34;;;;;;;8.53;6.90;;;-0.90;99.90;;;;;;5038307;28;20167;-81
2021/12/13 07:06:04;;;;;;;8.47;7.57;;;-0.70;99.90;;;;;;5037290;28;20249;-74
2021/12/13 07:08:34;;;;;;;8.97;8.17;;;-0.70;99.90;;;;;;5037188;28;20181;-78
2021/12/13 07:11:08;;;;;;;7.53;6.80;;;-1.00;99.90;;;;;;5037933;28;20194;-77
2021/12/13 07:13:35;;;;;;;9.97;7.50;;;-1.10;99.90;;;;;;5038155;28;20184;-79
2021/12/13 07:16:16;;;;;;;10.87;8.33;;;-1.40;99.90;;;;;;5037870;28;20599;-81
2021/12/13 07:18:48;;;;;;;8.90;7.20;;;-2.40;99.90;;;;;;5036520;28;20289;-81
2021/12/13 07:21:18;;;;;;;7.80;7.00;;;-2.10;99.90;;;;;;5038083;28;20172;-78
2021/12/13 07:24:07;;;;;;;7.27;6.57;;;-1.90;99.90;;;;;;5037864;28;20172;-82
2021/12/13 07:26:53;;;;;;;8.07;7.27;;;-2.20;99.90;;;;;;5036929;28;20262;-85
2021/12/13 07:29:27;;;;;;;7.93;7.13;;;-0.40;99.90;;;;;;5035319;28;20482;-75
2021/12/13 07:32:12;;;;;;;7.90;6.80;;;-1.50;99.90;;;;;;5036624;28;20285;-83
2021/12/13 07:35:01;;;;;;;7.93;7.10;;;-1.70;99.90;;;;;;5037836;28;20225;-79
2021/12/13 07:37:50;;;;;;;8.00;6.60;;;-1.60;99.90;;;;;;5029099;28;20231;-77
2021/12/13 07:40:40;;;;;;;7.27;6.57;;;-1.40;99.90;;;;;;5029847;28;20170;-74
2021/12/13 07:43:26;;;;;;;9.60;7.40;;;-1.50;99.90;;;;;;5034541;28;20273;-77
2021/12/13 07:46:05;;;;;;;7.10;6.23;;;-1.10;99.90;;;;;;5037494;28;20567;-75
2021/12/13 07:48:35;;;;;;;7.90;6.53;;;-1.20;99.90;;;;;;5036992;28;20189;-74
2021/12/13 07:51:17;;;;;;;7.57;6.77;;;-1.70;99.90;;;;;;5036831;28;20275;-75
2021/12/13 07:53:57;;;;;;;8.93;6.77;;;-1.90;99.90;;;;;;5029383;28;20180;-73
2021/12/13 07:56:28;;;;;;;7.87;7.10;;;-1.40;99.90;;;;;;5019829;28;20530;-74
2021/12/13 07:59:15;;;;;;;6.43;5.83;;;-1.30;99.90;;;;;;5027063;28;20184;-73
2021/12/13 08:01:59;;;;;;;6.73;6.07;;;-0.90;99.90;;;;;;5036571;28;20170;-73
2021/12/13 08:04:45;;;;;;;6.40;4.90;;;-1.00;99.90;;;;;;5036784;28;20187;-75
2021/12/13 08:07:16;;;;;;;8.17;6.90;;;-0.80;99.90;;;;;;5035602;28;20509;-73
2021/12/13 08:10:06;;;;;;;7.93;5.13;;;-0.70;99.90;;;;;;5036312;28;20591;-74
2021/12/13 08:12:40;;;;;;;6.03;5.53;;;-1.20;99.90;;;;;;5035004;28;20199;-77
2021/12/13 08:15:17;;;;;;;7.27;6.20;;;-1.10;99.90;;;;;;5034668;28;20219;-77
2021/12/13 08:17:53;;;;;;;4.87;4.33;;;-1.10;99.90;;;;;;5035269;28;20255;-77
2021/12/13 08:20:31;;;;;;;6.03;5.53;;;-0.90;99.90;;;;;;5036095;28;20655;-76
2021/12/13 08:23:00;;;;;;;8.03;6.17;;;-1.30;99.90;;;;;;5034402;28;20179;-74
2021/12/13 08:25:35;;;;;;;6.23;5.63;;;-1.70;99.90;;;;;;5034871;28;20237;-75
2021/12/13 08:28:08;;;;;;;8.80;4.97;;;-1.50;99.90;;;;;;5035546;28;20446;-79
2021/12/13 08:30:52;;;;;;;6.77;5.63;;;-1.50;99.90;;;;;;5034657;28;20218;-74
2021/12/13 08:33:22;;;;;;;6.50;5.20;;;-1.00;99.90;;;;;;5035534;28;20605;-83
2021/12/13 08:36:13;;;;;;;5.97;5.47;;;-0.80;99.90;;;;;;5034727;28;20212;-76
2021/12/13 08:38:53;;;;;;;5.87;5.33;;;-0.90;99.90;;;;;;5030790;28;20199;-75
2021/12/13 08:41:48;;;;;;;8.27;6.13;;;-2.10;99.90;;;;;;5034794;28;20177;-79
2021/12/13 08:44:19;;;;;;;5.53;4.40;;;-2.60;99.90;;;;;;5032615;28;20187;-76
2021/12/13 08:46:57;;;;;;;4.93;4.47;;;-2.60;99.90;;;;;;5035707;28;20242;-77
2021/12/13 08:49:46;;;;;;;6.10;4.27;;;-2.50;99.90;;;;;;5034554;28;20230;-75
2021/12/13 08:52:23;;;;;;;7.80;4.27;;;-2.50;99.90;;;;;;5034984;28;20171;-76
2021/12/13 08:55:06;;;;;;;4.83;4.43;;;-2.80;99.90;;;;;;5035306;28;20266;-75
2021/12/13 08:58:03;;;;;;;5.13;4.67;;;-2.30;99.90;;;;;;5034237;28;20627;-75
2021/12/13 09:00:55;;;;;;;5.63;4.67;;;-2.10;99.90;;;;;;5033515;28;20168;-78
2021/12/13 09:03:40;;;;;;;4.93;4.50;;;-2.30;99.90;;;;;;5035638;28;20183;-74
2021/12/13 09:06:17;;;;;;;6.23;3.67;;;-2.10;99.90;;;;;;5033634;28;20559;-75
2021/12/13 09:08:47;;;;;;;4.70;4.30;;;-2.80;99.90;;;;;;5035139;28;20245;-78
2021/12/13 09:11:31;;;;;;;8.90;5.07;;;-3.70;99.90;;;;;;5034657;28;20230;-73
2021/12/13 09:14:13;;;;;;;6.27;4.47;;;-4.90;99.90;;;;;;5034784;28;20187;-71
2021/12/13 09:17:21;;;;;;;7.07;4.50;;;-3.80;99.90;;;;;;5034206;28;20203;-72
2021/12/13 09:20:12;;;;;;;5.67;4.80;;;-3.50;99.90;;;;;;5033970;28;20263;-72
2021/12/13 09:22:45;;;;;;;3.97;3.60;;;-3.20;99.90;;;;;;5035397;28;20175;-72
2021/12/13 09:25:21;;;;;;;4.43;4.03;;;-3.20;99.90;;;;;;5036470;28;20202;-75
2021/12/13 09:27:59;;;;;;;11.20;4.83;;;-3.60;99.90;;;;;;5031985;28;20274;-75
2021/12/13 09:30:33;;;;;;;4.70;4.00;;;-3.90;99.90;;;;;;5035740;28;20587;-70
2021/12/13 09:33:13;;;;;;;7.00;6.13;;;-3.80;99.90;;;;;;5035252;28;20168;-75
2021/12/13 09:35:58;;;;;;;4.93;4.50;;;-3.70;99.90;;;;;;5035293;28;20194;-77
2021/12/13 09:38:38;;;;;;;5.87;4.37;;;-3.50;99.90;;;;;;5034889;28;20223;-75
2021/12/13 09:41:22;;;;;;;8.87;6.40;;;-3.30;99.90;;;;;;5035826;28;20176;-73
2021/12/13 09:43:51;;;;;;;4.77;4.37;;;-3.10;99.90;;;;;;5033545;28;20493;-73
2021/12/13 09:46:41;;;;;;;4.30;3.90;;;-2.40;99.90;;;;;;5034495;28;20190;-72
2021/12/13 09:49:22;;;;;;;11.30;5.10;;;-2.10;99.90;;;;;;5033949;28;20278;-71
2021/12/13 09:52:07;;;;;;;4.60;4.17;;;-2.70;99.90;;;;;;5034981;28;20183;-74
2021/12/13 09:54:59;;;;;;;6.13;4.33;;;-3.00;99.90;;;;;;5042414;28;20164;-75
2021/12/13 09:57:34;;;;;;;6.33;4.20;;;-3.30;99.90;;;;;;5041137;28;20204;-76
2021/12/13 10:00:05;;;;;;;5.27;4.20;;;-2.40;99.90;;;;;;5039479;28;20259;-72
2021/12/13 10:02:39;;;;;;;4.23;3.83;;;-2.00;99.90;;;;;;5037524;28;20243;-77
2021/12/13 10:05:11;;;;;;;2.87;2.67;;;-1.80;99.90;;;;;;5034755;28;20295;-75
2021/12/13 10:07:41;;;;;;;7.43;3.90;;;-2.30;99.90;;;;;;5037596;28;20184;-75
2021/12/13 10:10:13;;;;;;;5.77;5.03;;;-3.00;99.90;;;;;;5037901;28;20172;-72
2021/12/13 10:12:46;;;;;;;3.77;3.10;;;-2.60;99.90;;;;;;5036032;28;20177;-71
2021/12/13 10:15:25;;;;;;;4.97;3.90;;;-2.20;99.90;;;;;;5035333;28;20583;-72
2021/12/13 10:17:59;;;;;;;5.73;3.37;;;-2.40;99.90;;;;;;5033993;28;20230;-73
2021/12/13 10:20:33;;;;;;;3.73;3.27;;;-2.40;99.90;;;;;;5030750;28;20192;-73
2021/12/13 10:22:59;;;;;;;4.23;3.83;;;-1.80;99.90;;;;;;5031756;28;20176;-71
2021/12/13 10:25:36;;;;;;;7.47;2.80;;;-1.90;99.90;;;;;;5032303;28;20182;-74
2021/12/13 10:28:06;;;;;;;4.87;4.43;;;-2.40;99.90;;;;;;5033585;28;20207;-72
2021/12/13 10:30:37;;;;;;;9.63;7.33;;;-2.50;99.90;;;;;;5033192;28;20523;-72
2021/12/13 10:33:06;;;;;;;8.50;5.30;;;-2.60;99.90;;;;;;5034398;28;20200;-71
2021/12/13 10:35:36;;;;;;;3.57;3.30;;;-2.60;99.90;;;;;;5034671;28;20559;-72
2021/12/13 10:38:16;;;;;;;4.93;3.83;;;-2.60;99.90;;;;;;5015826;28;20520;-71
2021/12/13 10:40:56;;;;;;;5.50;2.97;;;-3.30;99.90;;;;;;5026512;28;20161;-74
2021/12/13 10:43:29;;;;;;;4.13;3.07;;;-3.00;99.90;;;;;;5035134;28;20645;-73
2021/12/13 10:46:10;;;;;;;8.17;6.93;;;-2.90;99.90;;;;;;5036516;28;20176;-74
2021/12/13 10:48:44;;;;;;;11.33;3.80;;;-2.80;99.90;;;;;;5038255;28;20267;-81
2021/12/13 10:51:12;;;;;;;5.57;4.93;;;-2.90;99.90;;;;;;5038610;28;20173;-78
2021/12/13 10:53:40;;;;;;;8.77;7.33;;;-2.20;99.90;;;;;;5033908;28;20203;-85
2021/12/13 10:56:12;;;;;;;5.27;4.17;;;-2.70;99.90;;;;;;5031872;28;22218;-79
2021/12/13 10:58:45;;;;;;;4.80;3.77;;;-2.60;99.90;;;;;;5042889;28;20169;-81
2021/12/13 11:01:20;;;;;;;7.97;6.47;;;-2.60;99.90;;;;;;5033417;28;20172;-81
2021/12/13 11:03:48;;;;;;;3.87;3.47;;;-3.20;99.90;;;;;;5037320;28;20203;-77
2021/12/13 11:06:16;;;;;;;3.17;2.97;;;-3.10;99.90;;;;;;5037263;28;20234;-78
2021/12/13 11:08:43;;;;;;;7.83;4.37;;;-2.90;99.90;;;;;;5037797;28;20455;-81
2021/12/13 11:11:17;;;;;;;6.00;4.87;;;-2.90;99.90;;;;;;5036805;28;20199;-76
2021/12/13 11:13:45;;;;;;;2.73;2.53;;;-2.40;99.90;;;;;;5037906;28;20182;-74
2021/12/13 11:16:18;;;;;;;3.33;3.03;;;-2.40;99.90;;;;;;5036776;28;20200;-79
2021/12/13 11:18:45;;;;;;;4.33;2.57;;;-3.30;99.90;;;;;;5037381;28;20176;-78
2021/12/13 11:21:35;;;;;;;4.57;3.13;;;-3.40;99.90;;;;;;5037253;28;20191;-76
2021/12/13 11:24:03;;;;;;;4.80;3.43;;;-2.40;99.90;;;;;;5034918;28;20189;-76
2021/12/13 11:26:35;;;;;;;4.93;3.43;;;-2.00;99.90;;;;;;5032493;28;20596;-77
2021/12/13 11:29:02;;;;;;;4.90;3.17;;;-2.00;99.90;;;;;;5036867;28;20188;-72
2021/12/13 11:31:31;;;;;;;4.07;3.70;;;-2.40;99.90;;;;;;5035665;28;20184;-73
2021/12/13 11:34:01;;;;;;;5.50;3.30;;;-2.40;99.90;;;;;;5035880;28;20187;-75
2021/12/13 11:36:51;;;;;;;4.40;2.87;;;-1.80;99.90;;;;;;5035861;28;20212;-72
2021/12/13 11:39:26;;;;;;;2.77;2.37;;;-3.10;99.90;;;;;;5036739;28;20240;-78
2021/12/13 11:42:04;;;;;;;5.33;4.73;;;-3.80;99.90;;;;;;5036622;28;20195;-72
2021/12/13 11:44:45;;;;;;;10.80;5.37;;;-2.90;99.90;;;;;;5034623;28;20280;-73
2021/12/13 11:47:29;;;;;;;6.33;3.80;;;-3.80;99.90;;;;;;5035720;28;20645;-75
2021/12/13 11:50:40;;;;;;;3.93;3.43;;;-3.20;99.90;;;;;;5036377;28;20207;-72
2021/12/13 11:53:28;;;;;;;3.70;3.40;;;-2.60;99.90;;;;;;5036262;28;20184;-74
2021/12/13 11:56:27;;;;;;;6.70;3.73;;;-2.30;99.90;;;;;;5031297;28;20183;-72
2021/12/13 11:59:25;;;;;;;7.10;3.53;;;-2.70;99.90;;;;;;5035860;28;20176;-72
2021/12/13 12:02:10;;;;;;;3.53;2.93;;;-2.70;99.90;;;;;;5045054;28;20195;-72
2021/12/13 12:05:23;;;;;;;3.87;2.27;;;-2.20;99.90;;;;;;5034402;28;20184;-85
2021/12/13 12:08:26;;;;;;;3.23;2.93;;;-3.50;99.90;;;;;;5035588;28;20560;-71
2021/12/13 12:11:17;;;;;;;3.07;2.73;;;-3.30;99.90;;;;;;5037601;28;20620;-82
2021/12/13 12:14:09;;;;;;;5.63;3.33;;;-2.80;99.90;;;;;;5036968;28;20254;-71
2021/12/13 12:16:47;;;;;;;9.17;4.13;;;-2.60;99.90;;;;;;5037096;28;20630;-85
2021/12/13 12:19:26;;;;;;;3.97;3.57;;;-2.40;99.90;;;;;;5037218;28;20168;-71
2021/12/13 12:22:03;;;;;;;5.73;3.53;;;-3.50;99.90;;;;;;5036338;28;20791;-78
2021/12/13 12:24:34;;;;;;;5.47;4.83;;;-3.20;99.90;;;;;;5020381;28;20188;-81
2021/12/13 12:27:05;;;;;;;5.47;3.60;;;-2.60;99.90;;;;;;5033484;28;20592;-73
2021/12/13 12:29:37;;;;;;;7.13;6.50;;;-2.50;99.90;;;;;;5032868;28;20180;-71
2021/12/13 12:32:11;;;;;;;5.63;5.20;;;-3.70;99.90;;;;;;5033326;28;20175;-74
2021/12/13 12:34:49;;;;;;;4.07;3.63;;;-2.20;99.90;;;;;;5031610;28;20181;-72
2021/12/13 12:37:59;;;;;;;6.20;5.63;;;-2.10;99.90;;;;;;5033843;28;20205;-71
2021/12/13 12:40:46;;;;;;;6.30;5.70;;;-2.20;99.90;;;;;;5034196;28;20212;-71
2021/12/13 12:43:16;;;;;;;11.43;8.83;;;-2.60;99.90;;;;;;5035262;28;20177;-72
2021/12/13 12:45:48;;;;;;;7.80;5.70;;;-2.70;99.90;;;;;;5032743;28;20607;-72
2021/12/13 12:48:20;;;;;;;4.73;4.20;;;-2.50;99.90;;;;;;5033786;28;20181;-71
2021/12/13 12:50:53;;;;;;;5.37;4.87;;;-2.20;99.90;;;;;;5035163;28;20191;-74
2021/12/13 12:53:31;;;;;;;4.37;3.60;;;-2.50;99.90;;;;;;5035009;28;20172;-72
2021/12/13 12:56:03;;;;;;;7.10;4.40;;;-1.80;99.90;;;;;;5035420;28;20196;-72
2021/12/13 12:58:44;;;;;;;2.87;2.57;;;-2.00;99.90;;;;;;5033944;28;20181;-70
2021/12/13 13:01:22;;;;;;;5.63;3.70;;;-1.70;99.90;;;;;;5034979;28;20152;-73
2021/12/13 13:03:48;;;;;;;3.90;3.23;;;-2.60;99.90;;;;;;5034691;28;20172;-71
2021/12/13 13:06:19;;;;;;;6.43;3.40;;;-3.00;99.90;;;;;;5035347;28;20172;-70
2021/12/13 13:08:48;;;;;;;2.77;2.47;;;-3.40;99.90;;;;;;5034942;28;20227;-70
2021/12/13 13:11:27;;;;;;;4.33;3.23;;;-3.10;99.90;;;;;;5034362;28;20641;-71
2021/12/13 13:13:58;;;;;;;5.13;2.90;;;-2.70;99.90;;;;;;5034550;28;20233;-70
2021/12/13 13:16:34;;;;;;;4.03;3.07;;;-2.50;99.90;;;;;;5033972;28;20200;-70
2021/12/13 13:19:04;;;;;;;2.93;2.63;;;-2.70;99.90;;;;;;5034882;28;20160;-70
2021/12/13 13:21:30;;;;;;;3.03;2.70;;;-2.80;99.90;;;;;;5033046;28;20169;-70
2021/12/13 13:24:00;;;;;;;6.30;3.20;;;-2.50;99.90;;;;;;5034632;28;20184;-69
2021/12/13 13:26:29;;;;;;;2.50;2.30;;;-1.90;99.90;;;;;;5034320;28;20173;-70
2021/12/13 13:29:01;;;;;;;4.73;2.67;;;-1.60;99.90;;;;;;5032469;28;20241;-69
2021/12/13 13:31:36;;;;;;;4.47;2.93;;;-2.30;99.90;;;;;;5034571;28;20176;-71
2021/12/13 13:34:38;;;;;;;3.63;2.47;;;-2.10;99.90;;;;;;5034298;28;20184;-73
2021/12/13 13:37:30;;;;;;;4.57;3.27;;;-2.00;99.90;;;;;;5033995;28;20319;-70